sensor_id;sensor_type;location;lat;lon;timestamp;P1;durP1;ratioP1;P2;durP2;ratioP2
71204;SDS011;58935;54.498;18.544;2023-07-29T00:00:42;6.70;;;6.10;;
71204;SDS011;58935;54.498;18.544;2023-07-29T00:03:09;7.00;;;6.40;;
71204;SDS011;58935;54.498;18.544;2023-07-29T00:05:35;7.70;;;6.60;;
71204;SDS011;58935;54.498;18.544;2023-07-29T00:08:02;7.40;;;6.50;;
71204;SDS011;58935;54.498;18.544;2023-07-29T00:10:28;8.10;;;6.00;;
71204;SDS011;58935;54.498;18.544;2023-07-29T00:12:54;7.90;;;6.30;;
71204;SDS011;58935;54.498;18.544;2023-07-29T00:15:19;8.70;;;6.80;;
71204;SDS011;58935;54.498;18.544;2023-07-29T00:17:45;7.70;;;6.70;;
71204;SDS011;58935;54.498;18.544;2023-07-29T00:20:10;10.70;;;7.20;;
71204;SDS011;58935;54.498;18.544;2023-07-29T00:22:36;7.00;;;6.20;;
71204;SDS011;58935;54.498;18.544;2023-07-29T00:28:13;9.60;;;6.90;;
71204;SDS011;58935;54.498;18.544;2023-07-29T00:30:39;10.80;;;6.70;;
71204;SDS011;58935;54.498;18.544;2023-07-29T00:33:04;8.10;;;7.20;;
71204;SDS011;58935;54.498;18.544;2023-07-29T00:35:30;8.20;;;7.10;;
71204;SDS011;58935;54.498;18.544;2023-07-29T00:37:55;8.30;;;7.50;;
71204;SDS011;58935;54.498;18.544;2023-07-29T00:40:21;8.40;;;7.30;;
71204;SDS011;58935;54.498;18.544;2023-07-29T00:42:48;8.30;;;7.00;;
71204;SDS011;58935;54.498;18.544;2023-07-29T00:45:16;9.30;;;6.60;;
71204;SDS011;58935;54.498;18.544;2023-07-29T00:47:42;8.30;;;6.70;;
71204;SDS011;58935;54.498;18.544;2023-07-29T00:50:12;7.50;;;6.50;;
71204;SDS011;58935;54.498;18.544;2023-07-29T00:52:40;8.40;;;6.90;;
71204;SDS011;58935;54.498;18.544;2023-07-29T00:55:06;7.10;;;6.40;;
71204;SDS011;58935;54.498;18.544;2023-07-29T00:57:33;8.60;;;6.40;;
71204;SDS011;58935;54.498;18.544;2023-07-29T01:00:00;8.60;;;6.20;;
71204;SDS011;58935;54.498;18.544;2023-07-29T01:02:26;7.40;;;6.80;;
71204;SDS011;58935;54.498;18.544;2023-07-29T01:04:57;8.90;;;7.90;;
71204;SDS011;58935;54.498;18.544;2023-07-29T01:10:29;7.90;;;6.60;;
71204;SDS011;58935;54.498;18.544;2023-07-29T01:16:10;9.90;;;6.20;;
71204;SDS011;58935;54.498;18.544;2023-07-29T01:18:42;7.80;;;6.50;;
71204;SDS011;58935;54.498;18.544;2023-07-29T01:21:11;8.60;;;6.60;;
71204;SDS011;58935;54.498;18.544;2023-07-29T01:23:37;12.60;;;6.60;;
71204;SDS011;58935;54.498;18.544;2023-07-29T01:26:03;8.70;;;6.00;;
71204;SDS011;58935;54.498;18.544;2023-07-29T01:28:29;7.20;;;6.60;;
71204;SDS011;58935;54.498;18.544;2023-07-29T01:31:01;9.60;;;6.40;;
71204;SDS011;58935;54.498;18.544;2023-07-29T01:33:41;8.30;;;7.20;;
71204;SDS011;58935;54.498;18.544;2023-07-29T01:36:15;8.10;;;6.50;;
71204;SDS011;58935;54.498;18.544;2023-07-29T01:38:48;8.20;;;6.90;;
71204;SDS011;58935;54.498;18.544;2023-07-29T01:41:16;7.80;;;7.00;;
71204;SDS011;58935;54.498;18.544;2023-07-29T01:43:43;7.00;;;6.30;;
71204;SDS011;58935;54.498;18.544;2023-07-29T01:46:10;8.90;;;7.60;;
71204;SDS011;58935;54.498;18.544;2023-07-29T01:48:37;7.50;;;6.80;;
71204;SDS011;58935;54.498;18.544;2023-07-29T01:51:03;7.60;;;6.90;;
71204;SDS011;58935;54.498;18.544;2023-07-29T01:53:29;9.10;;;7.20;;
71204;SDS011;58935;54.498;18.544;2023-07-29T01:55:55;7.60;;;6.90;;
71204;SDS011;58935;54.498;18.544;2023-07-29T01:58:22;9.00;;;8.10;;
71204;SDS011;58935;54.498;18.544;2023-07-29T02:00:47;7.60;;;6.90;;
71204;SDS011;58935;54.498;18.544;2023-07-29T02:03:13;12.20;;;7.80;;
71204;SDS011;58935;54.498;18.544;2023-07-29T02:05:38;8.30;;;6.90;;
71204;SDS011;58935;54.498;18.544;2023-07-29T02:08:03;9.60;;;7.30;;
71204;SDS011;58935;54.498;18.544;2023-07-29T02:10:29;8.20;;;7.40;;
71204;SDS011;58935;54.498;18.544;2023-07-29T02:12:54;8.70;;;7.30;;
71204;SDS011;58935;54.498;18.544;2023-07-29T02:15:19;8.10;;;7.20;;
71204;SDS011;58935;54.498;18.544;2023-07-29T02:17:45;7.90;;;7.20;;
71204;SDS011;58935;54.498;18.544;2023-07-29T02:20:10;9.40;;;7.50;;
71204;SDS011;58935;54.498;18.544;2023-07-29T02:22:36;9.00;;;7.30;;
71204;SDS011;58935;54.498;18.544;2023-07-29T02:25:02;9.30;;;7.40;;
71204;SDS011;58935;54.498;18.544;2023-07-29T02:27:28;6.20;;;5.70;;
71204;SDS011;58935;54.498;18.544;2023-07-29T02:29:54;8.10;;;6.80;;
71204;SDS011;58935;54.498;18.544;2023-07-29T02:32:20;7.90;;;6.50;;
71204;SDS011;58935;54.498;18.544;2023-07-29T02:34:46;9.20;;;7.00;;
71204;SDS011;58935;54.498;18.544;2023-07-29T02:37:11;8.40;;;7.50;;
71204;SDS011;58935;54.498;18.544;2023-07-29T02:39:37;6.90;;;6.30;;
71204;SDS011;58935;54.498;18.544;2023-07-29T02:42:03;8.80;;;7.50;;
71204;SDS011;58935;54.498;18.544;2023-07-29T02:44:28;7.80;;;7.00;;
71204;SDS011;58935;54.498;18.544;2023-07-29T02:46:54;7.00;;;6.30;;
71204;SDS011;58935;54.498;18.544;2023-07-29T02:49:19;8.40;;;6.70;;
71204;SDS011;58935;54.498;18.544;2023-07-29T02:51:45;6.90;;;6.30;;
71204;SDS011;58935;54.498;18.544;2023-07-29T02:54:10;6.60;;;6.00;;
71204;SDS011;58935;54.498;18.544;2023-07-29T02:56:35;7.60;;;6.80;;
71204;SDS011;58935;54.498;18.544;2023-07-29T02:59:01;6.50;;;5.80;;
71204;SDS011;58935;54.498;18.544;2023-07-29T03:01:26;9.80;;;7.00;;
71204;SDS011;58935;54.498;18.544;2023-07-29T03:03:52;6.70;;;6.00;;
71204;SDS011;58935;54.498;18.544;2023-07-29T03:06:18;6.60;;;5.90;;
71204;SDS011;58935;54.498;18.544;2023-07-29T03:08:44;7.20;;;5.90;;
71204;SDS011;58935;54.498;18.544;2023-07-29T03:11:13;7.20;;;6.20;;
71204;SDS011;58935;54.498;18.544;2023-07-29T03:13:40;8.50;;;6.70;;
71204;SDS011;58935;54.498;18.544;2023-07-29T03:16:11;6.90;;;6.20;;
71204;SDS011;58935;54.498;18.544;2023-07-29T03:18:38;7.20;;;6.40;;
71204;SDS011;58935;54.498;18.544;2023-07-29T03:21:03;7.10;;;6.40;;
71204;SDS011;58935;54.498;18.544;2023-07-29T03:23:30;7.90;;;6.50;;
71204;SDS011;58935;54.498;18.544;2023-07-29T03:25:58;7.40;;;5.90;;
71204;SDS011;58935;54.498;18.544;2023-07-29T03:28:29;7.50;;;5.50;;
71204;SDS011;58935;54.498;18.544;2023-07-29T03:30:56;6.60;;;5.90;;
71204;SDS011;58935;54.498;18.544;2023-07-29T03:33:22;7.80;;;6.90;;
71204;SDS011;58935;54.498;18.544;2023-07-29T03:35:48;6.80;;;6.10;;
71204;SDS011;58935;54.498;18.544;2023-07-29T03:38:14;8.60;;;6.60;;
71204;SDS011;58935;54.498;18.544;2023-07-29T03:40:40;6.80;;;6.10;;
71204;SDS011;58935;54.498;18.544;2023-07-29T03:43:07;7.10;;;6.30;;
71204;SDS011;58935;54.498;18.544;2023-07-29T03:45:33;7.70;;;7.00;;
71204;SDS011;58935;54.498;18.544;2023-07-29T03:48:00;7.20;;;6.60;;
71204;SDS011;58935;54.498;18.544;2023-07-29T03:50:27;7.40;;;6.80;;
71204;SDS011;58935;54.498;18.544;2023-07-29T03:52:53;7.70;;;7.00;;
71204;SDS011;58935;54.498;18.544;2023-07-29T03:55:18;7.20;;;6.60;;
71204;SDS011;58935;54.498;18.544;2023-07-29T03:57:44;7.40;;;6.70;;
71204;SDS011;58935;54.498;18.544;2023-07-29T04:00:10;8.00;;;7.30;;
71204;SDS011;58935;54.498;18.544;2023-07-29T04:02:35;7.00;;;6.20;;
71204;SDS011;58935;54.498;18.544;2023-07-29T04:05:03;7.30;;;6.70;;
71204;SDS011;58935;54.498;18.544;2023-07-29T04:07:30;7.90;;;7.10;;
71204;SDS011;58935;54.498;18.544;2023-07-29T04:09:56;10.10;;;7.10;;
71204;SDS011;58935;54.498;18.544;2023-07-29T04:12:22;6.90;;;6.30;;
71204;SDS011;58935;54.498;18.544;2023-07-29T04:14:48;6.70;;;6.10;;
71204;SDS011;58935;54.498;18.544;2023-07-29T04:17:14;6.50;;;6.00;;
71204;SDS011;58935;54.498;18.544;2023-07-29T04:19:40;6.50;;;5.90;;
71204;SDS011;58935;54.498;18.544;2023-07-29T04:22:05;6.70;;;6.10;;
71204;SDS011;58935;54.498;18.544;2023-07-29T04:24:30;6.80;;;6.10;;
71204;SDS011;58935;54.498;18.544;2023-07-29T04:26:56;6.40;;;5.90;;
71204;SDS011;58935;54.498;18.544;2023-07-29T04:29:21;6.90;;;6.20;;
71204;SDS011;58935;54.498;18.544;2023-07-29T04:31:49;5.80;;;5.10;;
71204;SDS011;58935;54.498;18.544;2023-07-29T04:34:15;9.80;;;5.40;;
71204;SDS011;58935;54.498;18.544;2023-07-29T04:36:40;6.50;;;5.80;;
71204;SDS011;58935;54.498;18.544;2023-07-29T04:39:05;5.80;;;5.30;;
71204;SDS011;58935;54.498;18.544;2023-07-29T04:41:31;5.40;;;5.00;;
71204;SDS011;58935;54.498;18.544;2023-07-29T04:43:56;7.00;;;5.90;;
71204;SDS011;58935;54.498;18.544;2023-07-29T04:46:21;5.90;;;5.30;;
71204;SDS011;58935;54.498;18.544;2023-07-29T04:48:47;5.60;;;5.20;;
71204;SDS011;58935;54.498;18.544;2023-07-29T04:51:12;5.50;;;5.00;;
71204;SDS011;58935;54.498;18.544;2023-07-29T04:53:37;6.40;;;5.50;;
71204;SDS011;58935;54.498;18.544;2023-07-29T04:56:03;5.10;;;4.70;;
71204;SDS011;58935;54.498;18.544;2023-07-29T04:58:29;5.60;;;5.10;;
71204;SDS011;58935;54.498;18.544;2023-07-29T05:00:55;5.70;;;5.30;;
71204;SDS011;58935;54.498;18.544;2023-07-29T05:03:21;6.70;;;5.60;;
71204;SDS011;58935;54.498;18.544;2023-07-29T05:05:46;6.30;;;5.70;;
71204;SDS011;58935;54.498;18.544;2023-07-29T05:08:11;5.70;;;5.20;;
71204;SDS011;58935;54.498;18.544;2023-07-29T05:10:37;6.50;;;5.50;;
71204;SDS011;58935;54.498;18.544;2023-07-29T05:13:02;5.10;;;4.60;;
71204;SDS011;58935;54.498;18.544;2023-07-29T05:15:27;5.80;;;5.10;;
71204;SDS011;58935;54.498;18.544;2023-07-29T05:17:53;5.10;;;4.50;;
71204;SDS011;58935;54.498;18.544;2023-07-29T05:20:18;5.20;;;4.80;;
71204;SDS011;58935;54.498;18.544;2023-07-29T05:22:43;5.10;;;4.60;;
71204;SDS011;58935;54.498;18.544;2023-07-29T05:25:09;6.00;;;5.40;;
71204;SDS011;58935;54.498;18.544;2023-07-29T05:27:34;4.90;;;4.50;;
71204;SDS011;58935;54.498;18.544;2023-07-29T05:30:00;5.60;;;4.70;;
71204;SDS011;58935;54.498;18.544;2023-07-29T05:32:25;5.30;;;4.30;;
71204;SDS011;58935;54.498;18.544;2023-07-29T05:34:50;4.40;;;4.00;;
71204;SDS011;58935;54.498;18.544;2023-07-29T05:37:16;4.30;;;4.00;;
71204;SDS011;58935;54.498;18.544;2023-07-29T05:39:41;5.90;;;4.10;;
71204;SDS011;58935;54.498;18.544;2023-07-29T05:42:07;5.50;;;4.00;;
71204;SDS011;58935;54.498;18.544;2023-07-29T05:44:33;4.40;;;4.00;;
71204;SDS011;58935;54.498;18.544;2023-07-29T05:46:58;5.10;;;3.40;;
71204;SDS011;58935;54.498;18.544;2023-07-29T05:49:24;7.10;;;3.90;;
71204;SDS011;58935;54.498;18.544;2023-07-29T05:51:49;5.20;;;3.10;;
71204;SDS011;58935;54.498;18.544;2023-07-29T05:54:18;4.10;;;3.40;;
71204;SDS011;58935;54.498;18.544;2023-07-29T05:56:44;3.10;;;2.80;;
71204;SDS011;58935;54.498;18.544;2023-07-29T05:59:09;3.70;;;3.10;;
71204;SDS011;58935;54.498;18.544;2023-07-29T06:01:34;3.90;;;3.50;;
71204;SDS011;58935;54.498;18.544;2023-07-29T06:04:00;3.30;;;3.00;;
71204;SDS011;58935;54.498;18.544;2023-07-29T06:06:26;3.50;;;3.20;;
71204;SDS011;58935;54.498;18.544;2023-07-29T06:08:52;2.80;;;2.50;;
71204;SDS011;58935;54.498;18.544;2023-07-29T06:11:17;2.80;;;2.60;;
71204;SDS011;58935;54.498;18.544;2023-07-29T06:13:42;6.10;;;3.00;;
71204;SDS011;58935;54.498;18.544;2023-07-29T06:16:08;3.10;;;2.90;;
71204;SDS011;58935;54.498;18.544;2023-07-29T06:18:33;2.80;;;2.60;;
71204;SDS011;58935;54.498;18.544;2023-07-29T06:20:58;3.80;;;3.20;;
71204;SDS011;58935;54.498;18.544;2023-07-29T06:23:24;3.00;;;2.60;;
71204;SDS011;58935;54.498;18.544;2023-07-29T06:25:49;4.80;;;2.50;;
71204;SDS011;58935;54.498;18.544;2023-07-29T06:28:14;2.70;;;2.10;;
71204;SDS011;58935;54.498;18.544;2023-07-29T06:30:39;2.90;;;2.50;;
71204;SDS011;58935;54.498;18.544;2023-07-29T06:33:05;2.40;;;2.20;;
71204;SDS011;58935;54.498;18.544;2023-07-29T06:35:31;2.60;;;2.40;;
71204;SDS011;58935;54.498;18.544;2023-07-29T06:37:57;2.40;;;2.20;;
71204;SDS011;58935;54.498;18.544;2023-07-29T06:40:22;2.50;;;2.30;;
71204;SDS011;58935;54.498;18.544;2023-07-29T06:42:47;2.20;;;2.10;;
71204;SDS011;58935;54.498;18.544;2023-07-29T06:45:13;4.40;;;2.70;;
71204;SDS011;58935;54.498;18.544;2023-07-29T06:47:38;2.50;;;2.20;;
71204;SDS011;58935;54.498;18.544;2023-07-29T06:50:04;6.20;;;2.40;;
71204;SDS011;58935;54.498;18.544;2023-07-29T06:52:30;2.50;;;2.20;;
71204;SDS011;58935;54.498;18.544;2023-07-29T06:54:55;2.40;;;2.20;;
71204;SDS011;58935;54.498;18.544;2023-07-29T06:57:21;3.20;;;2.10;;
71204;SDS011;58935;54.498;18.544;2023-07-29T06:59:46;2.50;;;2.30;;
71204;SDS011;58935;54.498;18.544;2023-07-29T07:02:12;2.70;;;2.40;;
71204;SDS011;58935;54.498;18.544;2023-07-29T07:04:37;2.50;;;2.30;;
71204;SDS011;58935;54.498;18.544;2023-07-29T07:07:02;3.00;;;2.00;;
71204;SDS011;58935;54.498;18.544;2023-07-29T07:09:28;3.30;;;2.30;;
71204;SDS011;58935;54.498;18.544;2023-07-29T07:11:53;2.30;;;2.10;;
71204;SDS011;58935;54.498;18.544;2023-07-29T07:14:19;2.00;;;1.80;;
71204;SDS011;58935;54.498;18.544;2023-07-29T07:16:44;2.00;;;1.90;;
71204;SDS011;58935;54.498;18.544;2023-07-29T07:19:10;2.60;;;2.00;;
71204;SDS011;58935;54.498;18.544;2023-07-29T07:21:36;2.10;;;1.90;;
71204;SDS011;58935;54.498;18.544;2023-07-29T07:24:01;3.20;;;2.00;;
71204;SDS011;58935;54.498;18.544;2023-07-29T07:26:27;2.30;;;2.10;;
71204;SDS011;58935;54.498;18.544;2023-07-29T07:28:53;3.80;;;2.00;;
71204;SDS011;58935;54.498;18.544;2023-07-29T07:31:18;4.60;;;2.00;;
71204;SDS011;58935;54.498;18.544;2023-07-29T07:33:44;2.20;;;2.10;;
71204;SDS011;58935;54.498;18.544;2023-07-29T07:36:10;3.00;;;2.20;;
71204;SDS011;58935;54.498;18.544;2023-07-29T07:38:35;2.60;;;2.10;;
71204;SDS011;58935;54.498;18.544;2023-07-29T07:41:00;2.40;;;2.20;;
71204;SDS011;58935;54.498;18.544;2023-07-29T07:43:26;2.40;;;2.20;;
71204;SDS011;58935;54.498;18.544;2023-07-29T07:45:56;4.30;;;2.00;;
71204;SDS011;58935;54.498;18.544;2023-07-29T07:48:23;7.10;;;2.50;;
71204;SDS011;58935;54.498;18.544;2023-07-29T07:50:49;3.00;;;2.10;;
71204;SDS011;58935;54.498;18.544;2023-07-29T07:53:14;5.50;;;2.50;;
71204;SDS011;58935;54.498;18.544;2023-07-29T07:55:39;2.70;;;2.50;;
71204;SDS011;58935;54.498;18.544;2023-07-29T07:58:05;2.40;;;2.20;;
71204;SDS011;58935;54.498;18.544;2023-07-29T08:00:30;5.10;;;2.10;;
71204;SDS011;58935;54.498;18.544;2023-07-29T08:02:55;4.70;;;2.20;;
71204;SDS011;58935;54.498;18.544;2023-07-29T08:05:21;3.70;;;2.20;;
71204;SDS011;58935;54.498;18.544;2023-07-29T08:07:46;2.40;;;2.00;;
71204;SDS011;58935;54.498;18.544;2023-07-29T08:10:11;5.00;;;2.30;;
71204;SDS011;58935;54.498;18.544;2023-07-29T08:12:37;2.60;;;2.10;;
71204;SDS011;58935;54.498;18.544;2023-07-29T08:15:02;4.30;;;2.30;;
71204;SDS011;58935;54.498;18.544;2023-07-29T08:17:28;2.90;;;2.70;;
71204;SDS011;58935;54.498;18.544;2023-07-29T08:19:53;2.80;;;2.30;;
71204;SDS011;58935;54.498;18.544;2023-07-29T08:22:18;2.40;;;2.20;;
71204;SDS011;58935;54.498;18.544;2023-07-29T08:24:45;2.50;;;2.30;;
71204;SDS011;58935;54.498;18.544;2023-07-29T08:27:11;2.60;;;2.10;;
71204;SDS011;58935;54.498;18.544;2023-07-29T08:29:36;2.00;;;1.90;;
71204;SDS011;58935;54.498;18.544;2023-07-29T08:32:01;2.30;;;2.10;;
71204;SDS011;58935;54.498;18.544;2023-07-29T08:34:27;2.40;;;2.20;;
71204;SDS011;58935;54.498;18.544;2023-07-29T08:36:52;3.20;;;2.10;;
71204;SDS011;58935;54.498;18.544;2023-07-29T08:39:17;3.10;;;2.20;;
71204;SDS011;58935;54.498;18.544;2023-07-29T08:41:54;4.10;;;2.10;;
71204;SDS011;58935;54.498;18.544;2023-07-29T08:44:26;2.70;;;2.10;;
71204;SDS011;58935;54.498;18.544;2023-07-29T08:46:56;9.80;;;4.10;;
71204;SDS011;58935;54.498;18.544;2023-07-29T08:49:22;3.40;;;2.50;;
71204;SDS011;58935;54.498;18.544;2023-07-29T08:51:49;2.30;;;2.10;;
71204;SDS011;58935;54.498;18.544;2023-07-29T08:54:16;2.30;;;2.20;;
71204;SDS011;58935;54.498;18.544;2023-07-29T08:56:42;2.80;;;2.10;;
71204;SDS011;58935;54.498;18.544;2023-07-29T08:59:09;2.80;;;2.40;;
71204;SDS011;58935;54.498;18.544;2023-07-29T09:01:39;4.40;;;2.30;;
71204;SDS011;58935;54.498;18.544;2023-07-29T09:04:06;3.50;;;2.00;;
71204;SDS011;58935;54.498;18.544;2023-07-29T09:06:33;2.00;;;1.90;;
71204;SDS011;58935;54.498;18.544;2023-07-29T09:09:00;2.80;;;2.10;;
71204;SDS011;58935;54.498;18.544;2023-07-29T09:11:27;2.60;;;2.40;;
71204;SDS011;58935;54.498;18.544;2023-07-29T09:13:53;2.60;;;2.40;;
71204;SDS011;58935;54.498;18.544;2023-07-29T09:16:20;3.10;;;2.20;;
71204;SDS011;58935;54.498;18.544;2023-07-29T09:18:50;2.30;;;2.10;;
71204;SDS011;58935;54.498;18.544;2023-07-29T09:21:23;2.70;;;1.90;;
71204;SDS011;58935;54.498;18.544;2023-07-29T09:23:52;3.60;;;2.00;;
71204;SDS011;58935;54.498;18.544;2023-07-29T09:26:26;3.70;;;2.30;;
71204;SDS011;58935;54.498;18.544;2023-07-29T09:28:54;5.60;;;2.20;;
71204;SDS011;58935;54.498;18.544;2023-07-29T09:31:22;2.30;;;2.00;;
71204;SDS011;58935;54.498;18.544;2023-07-29T09:33:50;4.30;;;2.10;;
71204;SDS011;58935;54.498;18.544;2023-07-29T09:36:21;2.10;;;2.00;;
71204;SDS011;58935;54.498;18.544;2023-07-29T09:38:46;2.00;;;1.90;;
71204;SDS011;58935;54.498;18.544;2023-07-29T09:41:13;3.50;;;2.00;;
71204;SDS011;58935;54.498;18.544;2023-07-29T09:43:39;2.20;;;2.00;;
71204;SDS011;58935;54.498;18.544;2023-07-29T09:46:05;2.90;;;2.00;;
71204;SDS011;58935;54.498;18.544;2023-07-29T09:48:36;3.30;;;2.10;;
71204;SDS011;58935;54.498;18.544;2023-07-29T09:51:14;4.10;;;2.20;;
71204;SDS011;58935;54.498;18.544;2023-07-29T09:53:46;3.00;;;2.10;;
71204;SDS011;58935;54.498;18.544;2023-07-29T09:56:13;2.10;;;1.80;;
71204;SDS011;58935;54.498;18.544;2023-07-29T09:58:40;2.30;;;2.10;;
71204;SDS011;58935;54.498;18.544;2023-07-29T10:01:08;3.70;;;2.40;;
71204;SDS011;58935;54.498;18.544;2023-07-29T10:03:35;2.90;;;2.30;;
71204;SDS011;58935;54.498;18.544;2023-07-29T10:06:03;4.80;;;2.00;;
71204;SDS011;58935;54.498;18.544;2023-07-29T10:08:30;2.40;;;2.20;;
71204;SDS011;58935;54.498;18.544;2023-07-29T10:10:59;3.80;;;2.20;;
71204;SDS011;58935;54.498;18.544;2023-07-29T10:13:26;2.40;;;1.90;;
71204;SDS011;58935;54.498;18.544;2023-07-29T10:15:54;5.40;;;2.00;;
71204;SDS011;58935;54.498;18.544;2023-07-29T10:18:22;1.70;;;1.60;;
71204;SDS011;58935;54.498;18.544;2023-07-29T10:20:52;1.80;;;1.70;;
71204;SDS011;58935;54.498;18.544;2023-07-29T10:23:21;2.40;;;1.90;;
71204;SDS011;58935;54.498;18.544;2023-07-29T10:25:55;1.80;;;1.70;;
71204;SDS011;58935;54.498;18.544;2023-07-29T10:28:29;1.90;;;1.80;;
71204;SDS011;58935;54.498;18.544;2023-07-29T10:30:56;2.30;;;2.00;;
71204;SDS011;58935;54.498;18.544;2023-07-29T10:33:23;3.40;;;2.00;;
71204;SDS011;58935;54.498;18.544;2023-07-29T10:35:49;3.10;;;1.90;;
71204;SDS011;58935;54.498;18.544;2023-07-29T10:38:16;2.50;;;1.80;;
71204;SDS011;58935;54.498;18.544;2023-07-29T10:40:48;5.40;;;1.90;;
71204;SDS011;58935;54.498;18.544;2023-07-29T10:43:32;2.10;;;1.90;;
71204;SDS011;58935;54.498;18.544;2023-07-29T10:46:15;4.20;;;2.00;;
71204;SDS011;58935;54.498;18.544;2023-07-29T10:48:43;2.60;;;1.70;;
71204;SDS011;58935;54.498;18.544;2023-07-29T10:51:35;1.90;;;1.80;;
71204;SDS011;58935;54.498;18.544;2023-07-29T10:54:14;4.40;;;1.60;;
71204;SDS011;58935;54.498;18.544;2023-07-29T10:56:42;2.00;;;1.50;;
71204;SDS011;58935;54.498;18.544;2023-07-29T10:59:33;1.80;;;1.70;;
71204;SDS011;58935;54.498;18.544;2023-07-29T11:02:00;1.80;;;1.70;;
71204;SDS011;58935;54.498;18.544;2023-07-29T11:04:28;1.80;;;1.60;;
71204;SDS011;58935;54.498;18.544;2023-07-29T11:10:00;2.10;;;2.00;;
71204;SDS011;58935;54.498;18.544;2023-07-29T11:15:29;2.30;;;2.00;;
71204;SDS011;58935;54.498;18.544;2023-07-29T11:17:57;3.00;;;1.90;;
71204;SDS011;58935;54.498;18.544;2023-07-29T11:20:25;2.00;;;1.80;;
71204;SDS011;58935;54.498;18.544;2023-07-29T11:22:54;2.30;;;1.60;;
71204;SDS011;58935;54.498;18.544;2023-07-29T11:25:22;1.70;;;1.60;;
71204;SDS011;58935;54.498;18.544;2023-07-29T11:27:51;1.70;;;1.60;;
71204;SDS011;58935;54.498;18.544;2023-07-29T11:30:18;3.60;;;1.70;;
71204;SDS011;58935;54.498;18.544;2023-07-29T11:32:45;2.80;;;1.90;;
71204;SDS011;58935;54.498;18.544;2023-07-29T11:35:16;1.80;;;1.70;;
71204;SDS011;58935;54.498;18.544;2023-07-29T11:37:48;2.10;;;1.60;;
71204;SDS011;58935;54.498;18.544;2023-07-29T11:40:17;2.40;;;1.60;;
71204;SDS011;58935;54.498;18.544;2023-07-29T11:42:45;2.20;;;1.70;;
71204;SDS011;58935;54.498;18.544;2023-07-29T11:45:12;1.70;;;1.60;;
71204;SDS011;58935;54.498;18.544;2023-07-29T11:47:39;1.80;;;1.70;;
71204;SDS011;58935;54.498;18.544;2023-07-29T11:50:07;1.70;;;1.60;;
71204;SDS011;58935;54.498;18.544;2023-07-29T11:52:35;2.90;;;1.50;;
71204;SDS011;58935;54.498;18.544;2023-07-29T11:55:03;1.70;;;1.60;;
71204;SDS011;58935;54.498;18.544;2023-07-29T11:57:30;2.00;;;1.70;;
71204;SDS011;58935;54.498;18.544;2023-07-29T11:59:57;1.50;;;1.40;;
71204;SDS011;58935;54.498;18.544;2023-07-29T12:02:23;3.10;;;1.50;;
71204;SDS011;58935;54.498;18.544;2023-07-29T12:04:51;1.90;;;1.50;;
71204;SDS011;58935;54.498;18.544;2023-07-29T12:07:18;2.30;;;1.70;;
71204;SDS011;58935;54.498;18.544;2023-07-29T12:09:45;2.50;;;1.60;;
71204;SDS011;58935;54.498;18.544;2023-07-29T12:12:11;2.20;;;1.90;;
71204;SDS011;58935;54.498;18.544;2023-07-29T12:14:37;2.40;;;1.50;;
71204;SDS011;58935;54.498;18.544;2023-07-29T12:17:04;3.50;;;1.80;;
71204;SDS011;58935;54.498;18.544;2023-07-29T12:19:32;3.80;;;1.50;;
71204;SDS011;58935;54.498;18.544;2023-07-29T12:22:00;2.80;;;1.80;;
71204;SDS011;58935;54.498;18.544;2023-07-29T12:24:27;2.60;;;1.80;;
71204;SDS011;58935;54.498;18.544;2023-07-29T12:26:52;1.90;;;1.70;;
71204;SDS011;58935;54.498;18.544;2023-07-29T12:29:19;3.40;;;1.80;;
71204;SDS011;58935;54.498;18.544;2023-07-29T12:31:45;2.10;;;1.90;;
71204;SDS011;58935;54.498;18.544;2023-07-29T12:34:24;5.20;;;1.70;;
71204;SDS011;58935;54.498;18.544;2023-07-29T12:36:51;4.70;;;1.70;;
71204;SDS011;58935;54.498;18.544;2023-07-29T12:39:18;1.90;;;1.80;;
71204;SDS011;58935;54.498;18.544;2023-07-29T12:41:49;3.60;;;1.60;;
71204;SDS011;58935;54.498;18.544;2023-07-29T12:44:16;2.00;;;1.90;;
71204;SDS011;58935;54.498;18.544;2023-07-29T12:46:42;1.90;;;1.60;;
71204;SDS011;58935;54.498;18.544;2023-07-29T12:49:08;2.00;;;1.80;;
71204;SDS011;58935;54.498;18.544;2023-07-29T12:51:34;1.90;;;1.80;;
71204;SDS011;58935;54.498;18.544;2023-07-29T12:54:00;2.00;;;1.80;;
71204;SDS011;58935;54.498;18.544;2023-07-29T12:56:26;1.90;;;1.80;;
71204;SDS011;58935;54.498;18.544;2023-07-29T12:58:52;5.60;;;2.10;;
71204;SDS011;58935;54.498;18.544;2023-07-29T13:01:17;2.00;;;1.80;;
71204;SDS011;58935;54.498;18.544;2023-07-29T13:03:44;2.40;;;1.80;;
71204;SDS011;58935;54.498;18.544;2023-07-29T13:06:09;1.80;;;1.70;;
71204;SDS011;58935;54.498;18.544;2023-07-29T13:08:35;1.60;;;1.50;;
71204;SDS011;58935;54.498;18.544;2023-07-29T13:11:00;2.00;;;1.80;;
71204;SDS011;58935;54.498;18.544;2023-07-29T13:13:25;1.80;;;1.40;;
71204;SDS011;58935;54.498;18.544;2023-07-29T13:15:51;1.80;;;1.70;;
71204;SDS011;58935;54.498;18.544;2023-07-29T13:18:17;1.60;;;1.50;;
71204;SDS011;58935;54.498;18.544;2023-07-29T13:20:43;3.00;;;1.70;;
71204;SDS011;58935;54.498;18.544;2023-07-29T13:23:08;4.10;;;1.80;;
71204;SDS011;58935;54.498;18.544;2023-07-29T13:25:33;1.80;;;1.60;;
71204;SDS011;58935;54.498;18.544;2023-07-29T13:27:59;2.30;;;2.10;;
71204;SDS011;58935;54.498;18.544;2023-07-29T13:30:24;3.60;;;1.70;;
71204;SDS011;58935;54.498;18.544;2023-07-29T13:32:49;2.70;;;1.90;;
71204;SDS011;58935;54.498;18.544;2023-07-29T13:35:14;2.40;;;1.80;;
71204;SDS011;58935;54.498;18.544;2023-07-29T13:37:40;1.80;;;1.60;;
71204;SDS011;58935;54.498;18.544;2023-07-29T13:40:06;3.80;;;1.80;;
71204;SDS011;58935;54.498;18.544;2023-07-29T13:42:32;2.40;;;1.80;;
71204;SDS011;58935;54.498;18.544;2023-07-29T13:44:57;1.60;;;1.50;;
71204;SDS011;58935;54.498;18.544;2023-07-29T13:47:22;1.70;;;1.60;;
71204;SDS011;58935;54.498;18.544;2023-07-29T13:49:47;1.80;;;1.60;;
71204;SDS011;58935;54.498;18.544;2023-07-29T13:52:14;3.40;;;1.70;;
71204;SDS011;58935;54.498;18.544;2023-07-29T13:54:39;1.90;;;1.80;;
71204;SDS011;58935;54.498;18.544;2023-07-29T13:57:05;1.70;;;1.60;;
71204;SDS011;58935;54.498;18.544;2023-07-29T13:59:32;2.40;;;1.80;;
71204;SDS011;58935;54.498;18.544;2023-07-29T14:01:57;4.00;;;1.80;;
71204;SDS011;58935;54.498;18.544;2023-07-29T14:04:23;1.30;;;1.20;;
71204;SDS011;58935;54.498;18.544;2023-07-29T14:06:48;1.70;;;1.60;;
71204;SDS011;58935;54.498;18.544;2023-07-29T14:09:14;2.00;;;1.90;;
71204;SDS011;58935;54.498;18.544;2023-07-29T14:11:39;1.70;;;1.60;;
71204;SDS011;58935;54.498;18.544;2023-07-29T14:14:04;1.70;;;1.60;;
71204;SDS011;58935;54.498;18.544;2023-07-29T14:16:30;1.70;;;1.50;;
71204;SDS011;58935;54.498;18.544;2023-07-29T14:18:55;2.00;;;1.90;;
71204;SDS011;58935;54.498;18.544;2023-07-29T14:21:20;1.60;;;1.50;;
71204;SDS011;58935;54.498;18.544;2023-07-29T14:23:46;4.20;;;1.50;;
71204;SDS011;58935;54.498;18.544;2023-07-29T14:26:11;1.60;;;1.50;;
71204;SDS011;58935;54.498;18.544;2023-07-29T14:28:37;1.60;;;1.40;;
71204;SDS011;58935;54.498;18.544;2023-07-29T14:31:02;1.50;;;1.40;;
71204;SDS011;58935;54.498;18.544;2023-07-29T14:33:27;1.10;;;1.10;;
71204;SDS011;58935;54.498;18.544;2023-07-29T14:35:53;1.70;;;1.60;;
71204;SDS011;58935;54.498;18.544;2023-07-29T14:38:19;2.30;;;1.50;;
71204;SDS011;58935;54.498;18.544;2023-07-29T14:40:47;2.00;;;1.30;;
71204;SDS011;58935;54.498;18.544;2023-07-29T14:43:13;5.00;;;1.50;;
71204;SDS011;58935;54.498;18.544;2023-07-29T14:45:38;1.50;;;1.40;;